createdAt,value
2018-08-22T00:00:02.196Z,4.20
2018-08-22T00:02:30.860Z,4.50
2018-08-22T00:04:59.484Z,5.13
2018-08-22T00:07:28.099Z,3.27
2018-08-22T00:09:56.760Z,5.33
2018-08-22T00:12:25.434Z,4.73
2018-08-22T00:14:54.059Z,3.73
2018-08-22T00:17:22.677Z,6.60
2018-08-22T00:19:51.371Z,6.17
2018-08-22T00:22:20.066Z,7.17
2018-08-22T00:24:48.678Z,5.17
2018-08-22T00:27:17.340Z,5.83
2018-08-22T00:29:45.942Z,4.13
2018-08-22T00:32:14.621Z,6.50
2018-08-22T00:34:43.287Z,3.73
2018-08-22T00:37:11.958Z,6.33
2018-08-22T00:39:40.853Z,4.40
2018-08-22T00:42:09.478Z,3.30
2018-08-22T00:44:38.140Z,4.00
2018-08-22T00:47:06.986Z,3.80
2018-08-22T00:49:35.643Z,3.60
2018-08-22T00:52:04.249Z,3.80
2018-08-22T00:54:32.865Z,5.10
2018-08-22T00:57:01.509Z,5.60
2018-08-22T00:59:30.158Z,6.53
2018-08-22T01:01:58.770Z,6.20
2018-08-22T01:04:27.432Z,4.70
2018-08-22T01:06:56.066Z,3.90
2018-08-22T01:09:24.718Z,4.00
2018-08-22T01:11:53.336Z,3.83
2018-08-22T01:14:22.012Z,7.80
2018-08-22T01:16:50.707Z,3.50
2018-08-22T01:19:19.301Z,4.73
2018-08-22T01:21:47.937Z,4.93
2018-08-22T01:24:16.601Z,4.37
2018-08-22T01:26:45.196Z,3.80
2018-08-22T01:29:13.807Z,4.70
2018-08-22T01:31:42.434Z,5.30
2018-08-22T01:34:11.032Z,5.67
2018-08-22T01:36:39.692Z,3.70
2018-08-22T01:39:08.750Z,4.20
2018-08-22T01:41:37.349Z,4.20
2018-08-22T01:44:06.014Z,4.80
2018-08-22T01:46:34.614Z,4.00
2018-08-22T01:49:03.255Z,3.77
2018-08-22T01:51:31.851Z,3.90
2018-08-22T01:54:00.496Z,4.53
2018-08-22T01:56:29.112Z,3.63
2018-08-22T01:58:57.756Z,5.60
2018-08-22T02:01:26.365Z,5.00
2018-08-22T02:03:55.014Z,4.53
2018-08-22T02:06:23.628Z,4.37
2018-08-22T02:08:52.269Z,8.07
2018-08-22T02:11:20.868Z,3.93
2018-08-22T02:13:49.539Z,6.37
2018-08-22T02:16:18.262Z,6.33
2018-08-22T02:18:46.930Z,5.23
2018-08-22T02:21:15.549Z,6.10
2018-08-22T02:23:44.208Z,3.47
2018-08-22T02:26:12.806Z,5.57
2018-08-22T02:28:41.481Z,4.73
2018-08-22T02:31:10.099Z,4.47
2018-08-22T02:33:38.781Z,4.80
2018-08-22T02:36:07.458Z,5.03
2018-08-22T02:38:36.092Z,4.67
2018-08-22T02:41:04.718Z,6.13
2018-08-22T02:43:33.325Z,6.30
2018-08-22T02:46:02.000Z,5.43
2018-08-22T02:48:34.006Z,4.43
2018-08-22T02:51:02.626Z,5.97
2018-08-22T02:53:31.266Z,6.00
2018-08-22T02:55:59.992Z,3.93
2018-08-22T02:58:28.642Z,5.80
2018-08-22T03:00:57.232Z,3.70
2018-08-22T03:03:25.865Z,5.77
2018-08-22T03:06:00.965Z,5.40
2018-08-22T03:08:29.656Z,4.87
2018-08-22T03:10:58.259Z,4.87
2018-08-22T03:13:26.889Z,4.87
2018-08-22T03:15:55.629Z,5.47
2018-08-22T03:18:24.556Z,4.40
2018-08-22T03:20:53.293Z,4.10
2018-08-22T03:23:21.943Z,7.53
2018-08-22T03:25:50.810Z,5.30
2018-08-22T03:28:19.410Z,4.33
2018-08-22T03:30:48.570Z,8.13
2018-08-22T03:33:17.652Z,5.60
2018-08-22T03:35:46.288Z,4.37
2018-08-22T03:38:14.939Z,5.07
2018-08-22T03:40:43.625Z,6.10
2018-08-22T03:43:12.298Z,8.20
2018-08-22T03:45:40.926Z,6.33
2018-08-22T03:48:09.542Z,6.97
2018-08-22T03:50:38.183Z,6.30
2018-08-22T03:53:06.830Z,4.97
2018-08-22T03:55:35.492Z,4.60
2018-08-22T03:58:04.109Z,4.23
2018-08-22T04:00:32.775Z,5.13
2018-08-22T04:03:01.429Z,4.93
2018-08-22T04:05:30.148Z,8.23
2018-08-22T04:07:58.764Z,5.57
2018-08-22T04:10:27.414Z,5.63
2018-08-22T04:12:56.049Z,8.20
2018-08-22T04:15:24.684Z,4.90
2018-08-22T04:17:53.331Z,5.23
2018-08-22T04:20:21.922Z,6.27
2018-08-22T04:22:50.564Z,4.00
2018-08-22T04:25:19.169Z,7.57
2018-08-22T04:27:47.766Z,4.67
2018-08-22T04:30:16.403Z,4.47
2018-08-22T04:32:45.052Z,6.03
2018-08-22T04:35:13.727Z,7.43
2018-08-22T04:37:42.383Z,7.33
2018-08-22T04:40:29.313Z,5.60
2018-08-22T04:42:58.075Z,6.17
2018-08-22T04:45:26.685Z,5.27
2018-08-22T04:47:55.366Z,7.57
2018-08-22T04:50:24.026Z,6.77
2018-08-22T04:52:52.681Z,5.93
2018-08-22T04:55:21.471Z,12.93
2018-08-22T04:57:50.123Z,7.40
2018-08-22T05:00:18.750Z,9.67
2018-08-22T05:02:47.388Z,8.93
2018-08-22T05:05:15.990Z,4.93
2018-08-22T05:07:44.632Z,4.97
2018-08-22T05:10:13.285Z,6.03
2018-08-22T05:12:41.940Z,7.53
2018-08-22T05:15:10.595Z,7.33
2018-08-22T05:17:39.217Z,5.23
2018-08-22T05:20:07.830Z,7.00
2018-08-22T05:22:36.496Z,5.63
2018-08-22T05:25:05.172Z,5.70
2018-08-22T05:27:33.822Z,6.13
2018-08-22T05:30:02.486Z,7.83
2018-08-22T05:32:31.101Z,6.00
2018-08-22T05:34:59.754Z,7.10
2018-08-22T05:37:28.378Z,4.77
2018-08-22T05:39:57.043Z,6.83
2018-08-22T05:42:25.701Z,6.63
2018-08-22T05:44:54.335Z,6.27
2018-08-22T05:47:22.978Z,6.43
2018-08-22T05:49:51.614Z,8.83
2018-08-22T05:52:20.233Z,7.97
2018-08-22T05:54:48.888Z,8.47
2018-08-22T05:57:17.535Z,5.13
2018-08-22T05:59:46.188Z,6.03
2018-08-22T06:02:14.805Z,6.30
2018-08-22T06:04:43.462Z,6.07
2018-08-22T06:07:12.116Z,6.87
2018-08-22T06:09:40.796Z,6.53
2018-08-22T06:12:09.479Z,7.93
2018-08-22T06:14:38.119Z,6.83
2018-08-22T06:17:06.727Z,5.73
2018-08-22T06:19:35.365Z,5.73
2018-08-22T06:22:03.993Z,7.87
2018-08-22T06:24:32.646Z,11.70
2018-08-22T06:27:01.258Z,6.27
2018-08-22T06:29:29.906Z,5.77
2018-08-22T06:31:58.581Z,7.10
2018-08-22T06:34:27.196Z,8.70
2018-08-22T06:36:55.854Z,8.13
2018-08-22T06:39:24.514Z,5.97
2018-08-22T06:41:53.120Z,6.13
2018-08-22T06:44:21.814Z,5.93
2018-08-22T06:46:50.506Z,5.27
2018-08-22T06:49:19.112Z,8.07
2018-08-22T06:51:47.730Z,5.07
2018-08-22T06:54:16.401Z,4.60
2018-08-22T06:56:45.010Z,6.17
2018-08-22T06:59:13.657Z,6.87
2018-08-22T07:01:42.272Z,3.93
2018-08-22T07:04:10.912Z,4.03
2018-08-22T07:06:39.559Z,5.23
2018-08-22T07:09:10.131Z,3.83
2018-08-22T07:11:38.789Z,4.33
2018-08-22T07:14:07.931Z,4.23
2018-08-22T07:16:36.481Z,3.43
2018-08-22T07:19:05.244Z,4.43
2018-08-22T07:21:33.888Z,4.27
2018-08-22T07:24:04.280Z,4.70
2018-08-22T07:26:33.091Z,4.90
2018-08-22T07:29:01.729Z,3.50
2018-08-22T07:31:30.402Z,6.43
2018-08-22T07:33:59.001Z,3.20
2018-08-22T07:36:27.621Z,4.00
2018-08-22T07:38:56.280Z,4.70
2018-08-22T07:41:24.988Z,3.93
2018-08-22T07:43:53.741Z,4.43
2018-08-22T07:46:22.389Z,3.83
2018-08-22T07:48:50.995Z,2.90
2018-08-22T07:51:19.947Z,4.25
2018-08-22T07:53:48.746Z,5.00
2018-08-22T07:56:17.388Z,3.90
2018-08-22T07:58:47.485Z,3.87
2018-08-22T08:01:16.203Z,3.00
2018-08-22T08:03:44.873Z,6.08
2018-08-22T08:06:13.833Z,6.35
2018-08-22T08:08:43.758Z,7.33
2018-08-22T08:11:12.463Z,4.20
2018-08-22T08:13:41.140Z,5.20
2018-08-22T08:16:09.830Z,4.95
2018-08-22T08:18:38.689Z,5.90
2018-08-22T08:21:07.434Z,3.42
2018-08-22T08:23:36.185Z,3.87
2018-08-22T08:26:04.999Z,5.05
2018-08-22T08:28:33.656Z,7.10
2018-08-22T08:31:02.525Z,5.00
2018-08-22T08:33:31.134Z,4.85
2018-08-22T08:35:59.805Z,5.35
2018-08-22T08:38:28.477Z,3.67
2018-08-22T08:40:57.098Z,6.10
2018-08-22T08:43:25.772Z,5.12
2018-08-22T08:45:54.445Z,5.45
2018-08-22T08:48:23.115Z,3.87
2018-08-22T08:50:51.762Z,6.80
2018-08-22T08:53:20.507Z,7.22
2018-08-22T08:55:49.104Z,4.22
2018-08-22T08:58:17.793Z,4.62
2018-08-22T09:00:46.404Z,6.72
2018-08-22T09:03:15.074Z,4.75
2018-08-22T09:05:43.774Z,7.22
2018-08-22T09:08:12.398Z,4.95
2018-08-22T09:10:41.097Z,5.03
2018-08-22T09:13:11.370Z,5.42
2018-08-22T09:15:40.260Z,6.60
2018-08-22T09:18:08.853Z,5.30
2018-08-22T09:20:37.590Z,4.97
2018-08-22T09:23:06.457Z,6.33
2018-08-22T09:25:35.106Z,8.95
2018-08-22T09:28:03.878Z,7.45
2018-08-22T09:30:32.762Z,8.35
2018-08-22T09:33:01.423Z,9.70
2018-08-22T09:35:30.575Z,4.95
2018-08-22T09:37:59.188Z,5.58
2018-08-22T09:40:27.865Z,8.60
2018-08-22T09:42:56.620Z,8.03
2018-08-22T09:45:25.318Z,5.55
2018-08-22T09:47:54.005Z,6.12
2018-08-22T09:50:22.674Z,5.17
2018-08-22T09:52:51.344Z,6.40
2018-08-22T09:55:20.002Z,8.03
2018-08-22T09:57:48.638Z,6.40
2018-08-22T10:00:22.587Z,7.87
2018-08-22T10:02:51.221Z,5.55
2018-08-22T10:05:19.898Z,7.25
2018-08-22T10:07:48.521Z,5.42
2018-08-22T10:10:17.260Z,7.10
2018-08-22T10:12:45.917Z,6.50
2018-08-22T10:15:14.601Z,10.05
2018-08-22T10:17:43.284Z,9.20
2018-08-22T10:20:11.925Z,6.00
2018-08-22T10:22:40.546Z,5.95
2018-08-22T10:25:09.232Z,6.72
2018-08-22T10:27:37.873Z,5.70
2018-08-22T10:30:06.888Z,8.05
2018-08-22T10:32:35.799Z,7.62
2018-08-22T10:35:04.496Z,7.08
2018-08-22T10:37:33.417Z,5.00
2018-08-22T10:40:02.147Z,5.17
2018-08-22T10:42:30.819Z,5.70
2018-08-22T10:44:59.453Z,6.72
2018-08-22T10:47:28.188Z,7.33
2018-08-22T10:49:56.837Z,7.80
2018-08-22T10:52:25.480Z,10.97
2018-08-22T10:54:54.077Z,9.17
2018-08-22T10:57:22.722Z,6.80
2018-08-22T10:59:51.346Z,6.53
2018-08-22T11:02:20.002Z,6.73
2018-08-22T11:04:48.794Z,6.33
2018-08-22T11:07:17.491Z,9.17
2018-08-22T11:09:46.138Z,7.63
2018-08-22T11:12:14.840Z,6.77
2018-08-22T11:14:43.488Z,7.93
2018-08-22T11:17:12.140Z,7.23
2018-08-22T11:19:40.845Z,7.83
2018-08-22T11:22:20.718Z,8.40
2018-08-22T11:25:00.461Z,7.10
2018-08-22T11:27:40.688Z,7.93
2018-08-22T11:30:20.597Z,7.00
2018-08-22T11:33:00.577Z,7.83
2018-08-22T11:35:28.040Z,7.70
2018-08-22T11:37:56.688Z,9.73
2018-08-22T11:40:25.339Z,6.57
2018-08-22T11:42:54.100Z,10.10
2018-08-22T11:45:22.756Z,8.13
2018-08-22T11:47:51.495Z,7.60
2018-08-22T11:50:20.156Z,7.97
2018-08-22T11:52:48.826Z,6.37
2018-08-22T11:55:17.438Z,8.70
2018-08-22T11:57:46.043Z,6.40
2018-08-22T12:00:14.720Z,7.27
2018-08-22T12:02:43.346Z,8.50
2018-08-22T12:05:12.009Z,7.73
2018-08-22T12:07:40.635Z,7.80
2018-08-22T12:10:09.318Z,8.47
2018-08-22T12:12:37.975Z,8.13
2018-08-22T12:15:06.711Z,8.33
2018-08-22T12:17:35.390Z,8.67
2018-08-22T12:20:04.106Z,8.87
2018-08-22T12:22:32.795Z,6.97
2018-08-22T12:25:01.429Z,6.93
2018-08-22T12:27:30.112Z,7.63
2018-08-22T12:29:58.808Z,6.60
2018-08-22T12:32:27.583Z,7.70
2018-08-22T12:34:56.246Z,7.13
2018-08-22T12:37:24.915Z,11.33
2018-08-22T12:39:53.554Z,9.50
2018-08-22T12:42:22.254Z,5.90
2018-08-22T12:44:50.950Z,8.43
2018-08-22T12:47:20.130Z,8.27
2018-08-22T12:49:48.932Z,7.50
2018-08-22T12:52:17.623Z,12.00
2018-08-22T12:54:46.256Z,7.57
2018-08-22T12:57:15.223Z,6.40
2018-08-22T12:59:43.907Z,6.47
2018-08-22T13:02:12.533Z,8.93
2018-08-22T13:04:41.272Z,9.73
2018-08-22T13:07:09.936Z,8.03
2018-08-22T13:09:38.613Z,11.13
2018-08-22T13:12:07.268Z,8.67
2018-08-22T13:14:35.993Z,6.57
2018-08-22T13:17:04.942Z,9.07
2018-08-22T13:19:33.610Z,6.73
2018-08-22T13:22:02.414Z,7.97
2018-08-22T13:24:31.045Z,6.37
2018-08-22T13:26:59.714Z,6.67
2018-08-22T13:29:28.328Z,8.40
2018-08-22T13:31:56.984Z,6.70
2018-08-22T13:34:25.633Z,8.70
2018-08-22T13:36:54.295Z,7.23
2018-08-22T13:39:22.903Z,6.07
2018-08-22T13:41:51.566Z,6.47
2018-08-22T13:44:20.180Z,7.47
2018-08-22T13:46:48.851Z,6.47
2018-08-22T13:49:17.463Z,8.07
2018-08-22T13:51:46.117Z,6.20
2018-08-22T13:54:14.777Z,7.63
2018-08-22T13:56:43.406Z,9.27
2018-08-22T13:59:12.111Z,7.27
2018-08-22T14:01:40.755Z,8.33
2018-08-22T14:04:09.462Z,10.80
2018-08-22T14:06:38.114Z,8.03
2018-08-22T14:09:08.869Z,6.03
2018-08-22T14:11:37.542Z,6.37
2018-08-22T14:14:06.230Z,7.27
2018-08-22T14:16:34.943Z,10.03
2018-08-22T14:19:03.585Z,6.03
2018-08-22T14:21:32.236Z,7.80
2018-08-22T14:24:00.907Z,5.50
2018-08-22T14:26:29.526Z,6.00
2018-08-22T14:28:58.191Z,11.70
2018-08-22T14:31:26.837Z,13.47
2018-08-22T14:33:55.508Z,10.23
2018-08-22T14:36:24.152Z,13.27
2018-08-22T14:38:52.834Z,7.40
2018-08-22T14:41:21.516Z,7.37
2018-08-22T14:43:50.219Z,10.43
2018-08-22T14:46:18.865Z,10.27
2018-08-22T14:48:47.552Z,7.73
2018-08-22T14:51:16.206Z,7.67
2018-08-22T14:53:44.882Z,7.83
2018-08-22T14:56:13.616Z,13.53
2018-08-22T14:58:42.322Z,7.30
2018-08-22T15:01:11.045Z,9.40
2018-08-22T15:03:39.757Z,7.53
2018-08-22T15:06:08.384Z,7.73
2018-08-22T15:08:37.130Z,8.87
2018-08-22T15:11:05.838Z,8.73
2018-08-22T15:13:34.542Z,9.17
2018-08-22T15:16:03.181Z,7.73
2018-08-22T15:18:31.907Z,8.57
2018-08-22T15:21:00.588Z,10.87
2018-08-22T15:23:29.309Z,8.73
2018-08-22T15:25:57.929Z,8.10
2018-08-22T15:28:26.579Z,7.73
2018-08-22T15:30:55.271Z,7.03
2018-08-22T15:33:23.888Z,11.70
2018-08-22T15:35:52.581Z,10.97
2018-08-22T15:38:21.205Z,9.10
2018-08-22T15:40:49.920Z,10.40
2018-08-22T15:43:18.590Z,10.13
2018-08-22T15:45:47.262Z,10.73
2018-08-22T15:48:16.738Z,9.60
2018-08-22T15:50:45.417Z,9.67
2018-08-22T15:53:14.088Z,9.50
2018-08-22T15:55:42.753Z,7.93
2018-08-22T15:58:11.424Z,8.80
2018-08-22T16:00:49.462Z,7.93
2018-08-22T16:03:18.319Z,9.07
2018-08-22T16:05:47.857Z,9.03
2018-08-22T16:08:18.523Z,8.40
2018-08-22T16:10:47.180Z,11.03
2018-08-22T16:13:21.245Z,12.17
2018-08-22T16:15:51.112Z,7.83
2018-08-22T16:18:20.226Z,9.37
2018-08-22T16:20:57.300Z,11.80
2018-08-22T16:23:33.117Z,9.67
2018-08-22T16:26:02.715Z,8.47
2018-08-22T16:28:42.737Z,9.83
2018-08-22T16:31:11.408Z,7.00
2018-08-22T16:33:40.123Z,8.40
2018-08-22T16:36:11.791Z,8.87
2018-08-22T16:38:40.504Z,9.33
2018-08-22T16:41:21.429Z,9.23
2018-08-22T16:43:50.126Z,9.43
2018-08-22T16:46:18.807Z,9.77
2018-08-22T16:48:50.244Z,11.70
2018-08-22T16:51:19.468Z,8.63
2018-08-22T16:54:11.850Z,11.20
2018-08-22T16:56:40.574Z,9.10
2018-08-22T16:59:11.406Z,9.77
2018-08-22T17:01:42.854Z,8.57
2018-08-22T17:04:11.441Z,10.67
2018-08-22T17:06:40.120Z,10.53
2018-08-22T17:09:10.078Z,9.23
2018-08-22T17:11:38.810Z,9.20
2018-08-22T17:14:07.502Z,9.90
2018-08-22T17:16:36.143Z,13.20
2018-08-22T17:19:05.051Z,10.97
2018-08-22T17:21:33.674Z,12.60
2018-08-22T17:24:02.368Z,11.27
2018-08-22T17:26:31.042Z,11.00
2018-08-22T17:29:00.503Z,38.00
2018-08-22T17:31:30.330Z,13.47
2018-08-22T17:34:00.260Z,13.93
2018-08-22T17:36:28.934Z,12.87
2018-08-22T17:38:58.822Z,13.23
2018-08-22T17:41:28.994Z,14.13
2018-08-22T17:44:05.951Z,15.73
2018-08-22T17:46:36.073Z,15.50
2018-08-22T17:49:04.778Z,15.10
2018-08-22T17:51:40.842Z,15.30
2018-08-22T17:54:09.479Z,15.37
2018-08-22T17:56:38.168Z,13.70
2018-08-22T17:59:06.841Z,14.30
2018-08-22T18:01:35.547Z,14.17
2018-08-22T18:04:04.317Z,14.60
2018-08-22T18:06:32.954Z,14.60
2018-08-22T18:09:01.992Z,13.10
2018-08-22T18:11:30.653Z,16.60
2018-08-22T18:13:59.368Z,13.43
2018-08-22T18:16:28.014Z,12.20
2018-08-22T18:18:56.674Z,13.00
2018-08-22T18:21:34.046Z,13.87
2018-08-22T18:24:02.784Z,12.00
2018-08-22T18:26:31.453Z,13.23
2018-08-22T18:29:00.168Z,11.10
2018-08-22T18:31:28.869Z,11.63
2018-08-22T18:33:59.740Z,11.97
2018-08-22T18:36:29.632Z,12.63
2018-08-22T18:39:15.625Z,12.60
2018-08-22T18:41:44.377Z,13.10
2018-08-22T18:44:13.107Z,13.80
2018-08-22T18:46:41.847Z,13.13
2018-08-22T18:49:10.630Z,13.93
2018-08-22T18:51:39.392Z,14.83
2018-08-22T18:54:08.156Z,18.13
2018-08-22T18:56:43.557Z,17.80
2018-08-22T18:59:26.566Z,17.10
2018-08-22T19:01:55.709Z,16.17
2018-08-22T19:04:25.260Z,17.70
2018-08-22T19:06:53.971Z,18.67
2018-08-22T19:09:22.700Z,19.07
2018-08-22T19:11:51.345Z,19.13
2018-08-22T19:14:30.317Z,20.37
2018-08-22T19:16:59.139Z,20.67
2018-08-22T19:19:30.485Z,20.33
2018-08-22T19:21:59.135Z,20.23
2018-08-22T19:24:27.768Z,20.70
2018-08-22T19:26:56.611Z,20.80
2018-08-22T19:29:25.377Z,20.57
2018-08-22T19:31:57.161Z,20.87
2018-08-22T19:34:25.841Z,20.53
2018-08-22T19:36:54.533Z,21.90
2018-08-22T19:39:23.181Z,20.20
2018-08-22T19:41:51.876Z,19.63
2018-08-22T19:44:20.819Z,21.27
2018-08-22T19:46:49.523Z,22.87
2018-08-22T19:49:18.501Z,22.37
2018-08-22T19:51:47.187Z,22.60
2018-08-22T19:54:16.508Z,21.37
2018-08-22T19:56:45.134Z,22.73
2018-08-22T19:59:14.601Z,21.17
2018-08-22T20:01:43.469Z,21.97
2018-08-22T20:04:12.145Z,22.30
2018-08-22T20:06:40.970Z,22.07
2018-08-22T20:09:11.755Z,20.50
2018-08-22T20:11:40.468Z,20.20
2018-08-22T20:14:09.162Z,19.90
2018-08-22T20:16:37.965Z,20.70
2018-08-22T20:19:06.654Z,21.73
2018-08-22T20:21:37.128Z,23.50
2018-08-22T20:24:07.519Z,23.67
2018-08-22T20:26:36.647Z,23.53
2018-08-22T20:29:06.419Z,23.93
2018-08-22T20:31:36.326Z,23.17
2018-08-22T20:34:08.335Z,22.73
2018-08-22T20:36:37.149Z,25.13
2018-08-22T20:39:09.133Z,25.17
2018-08-22T20:41:38.625Z,23.23
2018-08-22T20:44:08.685Z,24.73
2018-08-22T20:46:37.433Z,26.10
2018-08-22T20:49:06.216Z,26.57
2018-08-22T20:51:34.943Z,26.53
2018-08-22T20:54:09.653Z,27.13
2018-08-22T20:56:45.548Z,28.43
2018-08-22T20:59:15.452Z,28.60
2018-08-22T21:01:47.719Z,28.63
2018-08-22T21:04:16.404Z,27.67
2018-08-22T21:06:45.063Z,26.00
2018-08-22T21:09:13.798Z,27.90
2018-08-22T21:11:43.384Z,25.70
2018-08-22T21:14:12.822Z,26.33
2018-08-22T21:16:41.518Z,26.17
2018-08-22T21:19:10.266Z,25.07
2018-08-22T21:21:38.946Z,25.63
2018-08-22T21:24:07.664Z,26.03
2018-08-22T21:26:40.236Z,27.57
2018-08-22T21:29:09.001Z,26.63
2018-08-22T21:31:37.726Z,26.40
2018-08-22T21:34:13.029Z,25.87
2018-08-22T21:36:43.967Z,27.70
2018-08-22T21:39:17.918Z,26.87
2018-08-22T21:41:47.345Z,29.27
2018-08-22T21:44:18.441Z,30.50
2018-08-22T21:46:55.890Z,27.40
2018-08-22T21:49:25.290Z,28.53
2018-08-22T21:51:56.845Z,30.03
2018-08-22T21:54:25.826Z,31.00
2018-08-22T21:56:54.652Z,31.80
2018-08-22T21:59:23.568Z,29.33
2018-08-22T22:01:57.680Z,30.50
2018-08-22T22:04:31.349Z,30.83
2018-08-22T22:07:01.163Z,34.63
2018-08-22T22:09:29.797Z,32.83
2018-08-22T22:11:59.797Z,30.80
2018-08-22T22:14:31.430Z,29.57
2018-08-22T22:17:01.159Z,28.33
2018-08-22T22:19:31.531Z,30.27
2018-08-22T22:22:01.006Z,29.60
2018-08-22T22:24:29.692Z,32.97
2018-08-22T22:26:58.725Z,28.97
2018-08-22T22:29:29.887Z,29.87
2018-08-22T22:31:58.559Z,32.17
2018-08-22T22:34:27.224Z,30.87
2018-08-22T22:36:55.874Z,31.40
2018-08-22T22:39:38.289Z,32.60
2018-08-22T22:42:42.900Z,32.13
2018-08-22T22:45:11.590Z,30.83
2018-08-22T22:47:40.275Z,32.00
2018-08-22T22:50:08.918Z,31.00
2018-08-22T22:52:40.594Z,33.77
2018-08-22T22:55:10.087Z,31.97
2018-08-22T22:57:40.050Z,33.90
2018-08-22T23:00:10.212Z,32.37
2018-08-22T23:02:38.993Z,31.83
2018-08-22T23:05:08.222Z,30.37
2018-08-22T23:07:38.034Z,30.53
2018-08-22T23:10:08.363Z,28.40
2018-08-22T23:12:38.969Z,29.63
2018-08-22T23:15:08.953Z,31.00
2018-08-22T23:17:37.777Z,32.50
2018-08-22T23:20:19.713Z,29.70
2018-08-22T23:22:48.377Z,29.47
2018-08-22T23:25:17.028Z,29.60
2018-08-22T23:27:45.716Z,30.27
2018-08-22T23:30:17.740Z,30.23
2018-08-22T23:32:46.382Z,31.50
2018-08-22T23:35:23.975Z,28.87
2018-08-22T23:37:54.783Z,31.17
2018-08-22T23:40:24.518Z,27.97
2018-08-22T23:42:53.545Z,28.43
2018-08-22T23:45:22.314Z,30.67
2018-08-22T23:47:51.249Z,28.97
2018-08-22T23:50:20.014Z,29.23
2018-08-22T23:52:49.304Z,33.27
2018-08-22T23:55:19.407Z,31.60
2018-08-22T23:57:50.903Z,30.27
